sensor_id;sensor_type;location;lat;lon;timestamp;temperature;humidity
39401;DHT22;54391;50.000;7.360;2023-06-22T00:04:49;20.30;42.80
39401;DHT22;54391;50.000;7.360;2023-06-22T00:07:16;20.30;39.60
39401;DHT22;54391;50.000;7.360;2023-06-22T00:09:45;20.20;40.40
39401;DHT22;54391;50.000;7.360;2023-06-22T00:12:12;20.00;40.20
39401;DHT22;54391;50.000;7.360;2023-06-22T00:17:06;19.90;42.40
39401;DHT22;54391;50.000;7.360;2023-06-22T00:19:33;19.80;44.40
39401;DHT22;54391;50.000;7.360;2023-06-22T00:22:01;19.80;49.60
39401;DHT22;54391;50.000;7.360;2023-06-22T00:24:29;20.00;48.90
39401;DHT22;54391;50.000;7.360;2023-06-22T00:34:23;19.30;56.50
39401;DHT22;54391;50.000;7.360;2023-06-22T00:36:50;19.20;61.00
39401;DHT22;54391;50.000;7.360;2023-06-22T00:39:18;19.10;67.60
39401;DHT22;54391;50.000;7.360;2023-06-22T00:41:45;18.90;73.40
39401;DHT22;54391;50.000;7.360;2023-06-22T00:46:41;18.70;80.10
39401;DHT22;54391;50.000;7.360;2023-06-22T00:49:09;18.70;83.30
39401;DHT22;54391;50.000;7.360;2023-06-22T00:51:37;18.60;83.30
39401;DHT22;54391;50.000;7.360;2023-06-22T00:54:05;18.50;82.30
39401;DHT22;54391;50.000;7.360;2023-06-22T00:56:32;18.60;83.20
39401;DHT22;54391;50.000;7.360;2023-06-22T01:01:40;18.50;84.70
39401;DHT22;54391;50.000;7.360;2023-06-22T01:06:57;18.40;84.70
39401;DHT22;54391;50.000;7.360;2023-06-22T01:15:16;18.40;84.60
39401;DHT22;54391;50.000;7.360;2023-06-22T01:17:48;18.40;86.00
39401;DHT22;54391;50.000;7.360;2023-06-22T01:22:55;18.40;87.80
39401;DHT22;54391;50.000;7.360;2023-06-22T01:25:32;18.30;89.00
39401;DHT22;54391;50.000;7.360;2023-06-22T01:28:05;18.40;90.20
39401;DHT22;54391;50.000;7.360;2023-06-22T01:30:42;18.60;90.50
39401;DHT22;54391;50.000;7.360;2023-06-22T01:33:13;18.50;90.80
39401;DHT22;54391;50.000;7.360;2023-06-22T01:43:41;18.60;88.40
39401;DHT22;54391;50.000;7.360;2023-06-22T01:46:11;18.70;91.00
39401;DHT22;54391;50.000;7.360;2023-06-22T01:48:39;18.80;87.80
39401;DHT22;54391;50.000;7.360;2023-06-22T01:51:06;18.70;87.60
39401;DHT22;54391;50.000;7.360;2023-06-22T01:58:29;18.70;88.00
39401;DHT22;54391;50.000;7.360;2023-06-22T02:01:00;18.60;87.80
39401;DHT22;54391;50.000;7.360;2023-06-22T02:03:37;18.60;91.00
39401;DHT22;54391;50.000;7.360;2023-06-22T02:06:08;18.70;92.30
39401;DHT22;54391;50.000;7.360;2023-06-22T02:08:41;18.70;91.30
39401;DHT22;54391;50.000;7.360;2023-06-22T02:13:37;18.60;86.90
39401;DHT22;54391;50.000;7.360;2023-06-22T02:16:09;18.60;88.80
39401;DHT22;54391;50.000;7.360;2023-06-22T02:18:46;18.70;90.50
39401;DHT22;54391;50.000;7.360;2023-06-22T02:21:13;18.90;90.90
39401;DHT22;54391;50.000;7.360;2023-06-22T02:26:09;18.80;87.50
39401;DHT22;54391;50.000;7.360;2023-06-22T02:28:36;18.80;87.30
39401;DHT22;54391;50.000;7.360;2023-06-22T02:31:03;18.80;88.40
39401;DHT22;54391;50.000;7.360;2023-06-22T02:33:31;19.00;92.00
39401;DHT22;54391;50.000;7.360;2023-06-22T02:38:30;19.10;89.20
39401;DHT22;54391;50.000;7.360;2023-06-22T02:43:28;18.80;88.00
39401;DHT22;54391;50.000;7.360;2023-06-22T02:45:55;18.80;88.20
39401;DHT22;54391;50.000;7.360;2023-06-22T02:48:23;18.70;88.50
39401;DHT22;54391;50.000;7.360;2023-06-22T02:50:50;18.70;88.80
39401;DHT22;54391;50.000;7.360;2023-06-22T03:03:10;19.00;88.60
39401;DHT22;54391;50.000;7.360;2023-06-22T03:05:37;19.10;87.80
39401;DHT22;54391;50.000;7.360;2023-06-22T03:08:06;18.90;88.80
39401;DHT22;54391;50.000;7.360;2023-06-22T03:13:03;19.20;92.20
39401;DHT22;54391;50.000;7.360;2023-06-22T03:15:30;18.60;92.70
39401;DHT22;54391;50.000;7.360;2023-06-22T03:18:00;18.60;93.00
39401;DHT22;54391;50.000;7.360;2023-06-22T03:22:59;18.50;92.30
39401;DHT22;54391;50.000;7.360;2023-06-22T03:25:27;18.50;91.40
39401;DHT22;54391;50.000;7.360;2023-06-22T03:27:56;18.60;91.70
39401;DHT22;54391;50.000;7.360;2023-06-22T03:30:25;18.50;91.80
39401;DHT22;54391;50.000;7.360;2023-06-22T03:35:20;18.50;91.80
39401;DHT22;54391;50.000;7.360;2023-06-22T03:37:48;18.60;92.40
39401;DHT22;54391;50.000;7.360;2023-06-22T03:40:15;18.60;92.10
39401;DHT22;54391;50.000;7.360;2023-06-22T03:42:42;18.60;92.60
39401;DHT22;54391;50.000;7.360;2023-06-22T03:45:11;18.60;91.60
39401;DHT22;54391;50.000;7.360;2023-06-22T03:47:38;18.80;91.10
39401;DHT22;54391;50.000;7.360;2023-06-22T03:50:06;18.90;92.10
39401;DHT22;54391;50.000;7.360;2023-06-22T03:52:34;18.90;90.60
39401;DHT22;54391;50.000;7.360;2023-06-22T03:55:01;19.00;88.70
39401;DHT22;54391;50.000;7.360;2023-06-22T03:57:28;19.00;88.00
39401;DHT22;54391;50.000;7.360;2023-06-22T03:59:57;19.10;87.40
39401;DHT22;54391;50.000;7.360;2023-06-22T04:02:26;19.00;86.50
39401;DHT22;54391;50.000;7.360;2023-06-22T04:04:53;19.00;87.00
39401;DHT22;54391;50.000;7.360;2023-06-22T04:07:20;19.00;86.40
39401;DHT22;54391;50.000;7.360;2023-06-22T04:09:47;18.80;88.00
39401;DHT22;54391;50.000;7.360;2023-06-22T04:12:14;18.70;89.60
39401;DHT22;54391;50.000;7.360;2023-06-22T04:14:42;18.50;91.90
39401;DHT22;54391;50.000;7.360;2023-06-22T04:17:09;18.50;93.40
39401;DHT22;54391;50.000;7.360;2023-06-22T04:19:41;18.40;92.80
39401;DHT22;54391;50.000;7.360;2023-06-22T04:22:08;18.40;93.60
39401;DHT22;54391;50.000;7.360;2023-06-22T04:24:35;18.30;93.70
39401;DHT22;54391;50.000;7.360;2023-06-22T04:27:03;18.30;93.50
39401;DHT22;54391;50.000;7.360;2023-06-22T04:31:58;18.30;93.80
39401;DHT22;54391;50.000;7.360;2023-06-22T04:34:29;18.30;94.00
39401;DHT22;54391;50.000;7.360;2023-06-22T04:39:25;18.40;94.10
39401;DHT22;54391;50.000;7.360;2023-06-22T04:41:52;18.40;93.50
39401;DHT22;54391;50.000;7.360;2023-06-22T04:44:26;18.40;92.90
39401;DHT22;54391;50.000;7.360;2023-06-22T04:46:54;18.40;92.30
39401;DHT22;54391;50.000;7.360;2023-06-22T04:49:26;18.50;91.50
39401;DHT22;54391;50.000;7.360;2023-06-22T04:52:00;18.50;91.80
39401;DHT22;54391;50.000;7.360;2023-06-22T04:54:28;18.50;91.10
39401;DHT22;54391;50.000;7.360;2023-06-22T04:56:55;18.60;90.40
39401;DHT22;54391;50.000;7.360;2023-06-22T04:59:23;18.70;91.10
39401;DHT22;54391;50.000;7.360;2023-06-22T05:04:21;18.80;89.50
39401;DHT22;54391;50.000;7.360;2023-06-22T05:06:49;18.90;89.40
39401;DHT22;54391;50.000;7.360;2023-06-22T05:09:18;19.00;88.90
39401;DHT22;54391;50.000;7.360;2023-06-22T05:11:45;19.00;88.40
39401;DHT22;54391;50.000;7.360;2023-06-22T05:14:12;19.20;87.20
39401;DHT22;54391;50.000;7.360;2023-06-22T05:16:41;19.30;87.80
39401;DHT22;54391;50.000;7.360;2023-06-22T05:19:09;19.40;85.40
39401;DHT22;54391;50.000;7.360;2023-06-22T05:21:36;19.60;84.70
39401;DHT22;54391;50.000;7.360;2023-06-22T05:24:04;19.70;82.70
39401;DHT22;54391;50.000;7.360;2023-06-22T05:26:34;19.70;79.70
39401;DHT22;54391;50.000;7.360;2023-06-22T05:29:02;20.10;78.20
39401;DHT22;54391;50.000;7.360;2023-06-22T05:31:29;20.10;76.20
39401;DHT22;54391;50.000;7.360;2023-06-22T05:33:57;20.00;76.30
39401;DHT22;54391;50.000;7.360;2023-06-22T05:36:40;20.20;77.10
39401;DHT22;54391;50.000;7.360;2023-06-22T05:39:13;20.40;73.00
39401;DHT22;54391;50.000;7.360;2023-06-22T05:41:44;20.60;70.90
39401;DHT22;54391;50.000;7.360;2023-06-22T05:44:12;21.70;68.70
39401;DHT22;54391;50.000;7.360;2023-06-22T05:46:41;21.00;65.40
39401;DHT22;54391;50.000;7.360;2023-06-22T05:49:10;21.10;64.00
39401;DHT22;54391;50.000;7.360;2023-06-22T05:51:37;21.50;59.60
39401;DHT22;54391;50.000;7.360;2023-06-22T05:54:04;21.70;54.90
39401;DHT22;54391;50.000;7.360;2023-06-22T05:56:32;21.90;50.40
39401;DHT22;54391;50.000;7.360;2023-06-22T05:59:12;22.20;41.10
39401;DHT22;54391;50.000;7.360;2023-06-22T06:04:07;22.40;42.30
39401;DHT22;54391;50.000;7.360;2023-06-22T06:06:34;22.50;39.30
39401;DHT22;54391;50.000;7.360;2023-06-22T06:09:06;22.40;39.10
39401;DHT22;54391;50.000;7.360;2023-06-22T06:11:33;22.90;38.40
39401;DHT22;54391;50.000;7.360;2023-06-22T06:17:15;23.60;29.20
39401;DHT22;54391;50.000;7.360;2023-06-22T06:19:42;23.90;25.40
39401;DHT22;54391;50.000;7.360;2023-06-22T06:22:09;24.10;26.10
39401;DHT22;54391;50.000;7.360;2023-06-22T06:24:36;24.10;27.30
39401;DHT22;54391;50.000;7.360;2023-06-22T06:27:03;24.40;20.70
39401;DHT22;54391;50.000;7.360;2023-06-22T06:31:59;24.80;18.00
39401;DHT22;54391;50.000;7.360;2023-06-22T06:39:23;25.20;13.10
39401;DHT22;54391;50.000;7.360;2023-06-22T06:41:51;25.60;11.50
39401;DHT22;54391;50.000;7.360;2023-06-22T06:44:19;26.10;8.30
39401;DHT22;54391;50.000;7.360;2023-06-22T06:46:47;26.00;8.70
39401;DHT22;54391;50.000;7.360;2023-06-22T06:49:14;26.20;8.70
39401;DHT22;54391;50.000;7.360;2023-06-22T06:54:10;26.50;5.80
39401;DHT22;54391;50.000;7.360;2023-06-22T06:56:37;26.00;8.00
39401;DHT22;54391;50.000;7.360;2023-06-22T06:59:04;25.10;11.00
39401;DHT22;54391;50.000;7.360;2023-06-22T07:01:31;25.00;11.30
39401;DHT22;54391;50.000;7.360;2023-06-22T07:03:59;24.90;13.00
39401;DHT22;54391;50.000;7.360;2023-06-22T07:08:59;26.10;5.50
39401;DHT22;54391;50.000;7.360;2023-06-22T07:11:28;26.40;4.90
39401;DHT22;54391;50.000;7.360;2023-06-22T07:13:55;27.30;2.80
39401;DHT22;54391;50.000;7.360;2023-06-22T07:16:22;27.40;2.90
39401;DHT22;54391;50.000;7.360;2023-06-22T07:18:50;27.70;1.00
39401;DHT22;54391;50.000;7.360;2023-06-22T07:21:18;27.80;1.00
39401;DHT22;54391;50.000;7.360;2023-06-22T07:26:13;27.60;1.00
39401;DHT22;54391;50.000;7.360;2023-06-22T07:28:42;26.90;1.00
39401;DHT22;54391;50.000;7.360;2023-06-22T07:31:09;26.10;4.80
39401;DHT22;54391;50.000;7.360;2023-06-22T07:33:36;25.80;4.60
39401;DHT22;54391;50.000;7.360;2023-06-22T07:36:04;26.10;6.90
39401;DHT22;54391;50.000;7.360;2023-06-22T07:38:33;26.60;4.40
39401;DHT22;54391;50.000;7.360;2023-06-22T07:41:01;26.70;5.00
39401;DHT22;54391;50.000;7.360;2023-06-22T07:46:00;27.40;1.00
39401;DHT22;54391;50.000;7.360;2023-06-22T07:48:28;27.20;1.00
39401;DHT22;54391;50.000;7.360;2023-06-22T07:50:55;27.00;1.00
39401;DHT22;54391;50.000;7.360;2023-06-22T07:55:50;26.70;2.70
39401;DHT22;54391;50.000;7.360;2023-06-22T07:58:17;26.70;2.80
39401;DHT22;54391;50.000;7.360;2023-06-22T08:00:48;27.50;1.00
39401;DHT22;54391;50.000;7.360;2023-06-22T08:03:15;27.20;1.00
39401;DHT22;54391;50.000;7.360;2023-06-22T08:05:43;27.10;1.00
39401;DHT22;54391;50.000;7.360;2023-06-22T08:08:10;27.10;1.00
39401;DHT22;54391;50.000;7.360;2023-06-22T08:10:37;27.20;1.00
39401;DHT22;54391;50.000;7.360;2023-06-22T08:13:04;27.70;1.00
39401;DHT22;54391;50.000;7.360;2023-06-22T08:15:31;27.70;1.00
39401;DHT22;54391;50.000;7.360;2023-06-22T08:18:00;27.40;1.00
39401;DHT22;54391;50.000;7.360;2023-06-22T08:20:27;27.20;1.00
39401;DHT22;54391;50.000;7.360;2023-06-22T08:22:55;27.00;1.00
39401;DHT22;54391;50.000;7.360;2023-06-22T08:27:51;26.70;1.80
39401;DHT22;54391;50.000;7.360;2023-06-22T08:30:18;27.00;1.00
39401;DHT22;54391;50.000;7.360;2023-06-22T08:32:45;27.00;2.00
39401;DHT22;54391;50.000;7.360;2023-06-22T08:35:14;27.60;1.00
39401;DHT22;54391;50.000;7.360;2023-06-22T08:37:41;27.70;1.00
39401;DHT22;54391;50.000;7.360;2023-06-22T08:40:09;27.80;1.00
39401;DHT22;54391;50.000;7.360;2023-06-22T08:45:05;27.60;1.00
39401;DHT22;54391;50.000;7.360;2023-06-22T08:47:32;27.60;1.00
39401;DHT22;54391;50.000;7.360;2023-06-22T08:50:00;27.00;1.00
39401;DHT22;54391;50.000;7.360;2023-06-22T08:52:30;26.90;1.00
39401;DHT22;54391;50.000;7.360;2023-06-22T08:54:57;24.10;1.00
39401;DHT22;54391;50.000;7.360;2023-06-22T08:57:25;26.60;1.00
39401;DHT22;54391;50.000;7.360;2023-06-22T08:59:52;25.80;2.90
39401;DHT22;54391;50.000;7.360;2023-06-22T09:02:19;25.20;7.70
39401;DHT22;54391;50.000;7.360;2023-06-22T09:07:15;24.90;12.00
39401;DHT22;54391;50.000;7.360;2023-06-22T09:09:49;24.70;5.50
39401;DHT22;54391;50.000;7.360;2023-06-22T09:14:46;24.40;6.60
39401;DHT22;54391;50.000;7.360;2023-06-22T09:17:13;24.30;6.30
39401;DHT22;54391;50.000;7.360;2023-06-22T09:22:08;23.90;5.80
39401;DHT22;54391;50.000;7.360;2023-06-22T09:24:35;23.80;7.80
39401;DHT22;54391;50.000;7.360;2023-06-22T09:27:04;23.60;10.60
39401;DHT22;54391;50.000;7.360;2023-06-22T09:34:28;23.70;12.50
39401;DHT22;54391;50.000;7.360;2023-06-22T09:36:57;23.70;12.60
39401;DHT22;54391;50.000;7.360;2023-06-22T09:44:23;24.40;10.20
39401;DHT22;54391;50.000;7.360;2023-06-22T09:51:45;24.20;11.70
39401;DHT22;54391;50.000;7.360;2023-06-22T09:54:12;24.10;13.00
39401;DHT22;54391;50.000;7.360;2023-06-22T09:56:40;24.10;14.40
39401;DHT22;54391;50.000;7.360;2023-06-22T09:59:07;24.00;13.80
39401;DHT22;54391;50.000;7.360;2023-06-22T10:04:03;23.80;20.00
39401;DHT22;54391;50.000;7.360;2023-06-22T10:06:30;23.80;21.10
39401;DHT22;54391;50.000;7.360;2023-06-22T10:08:57;23.80;16.50
39401;DHT22;54391;50.000;7.360;2023-06-22T10:11:24;23.90;14.40
39401;DHT22;54391;50.000;7.360;2023-06-22T10:13:54;24.20;14.70
39401;DHT22;54391;50.000;7.360;2023-06-22T10:16:24;24.40;10.70
39401;DHT22;54391;50.000;7.360;2023-06-22T10:18:53;25.20;9.30
39401;DHT22;54391;50.000;7.360;2023-06-22T10:21:21;25.80;5.70
39401;DHT22;54391;50.000;7.360;2023-06-22T10:23:48;26.20;2.70
39401;DHT22;54391;50.000;7.360;2023-06-22T10:26:15;27.20;3.30
39401;DHT22;54391;50.000;7.360;2023-06-22T10:31:09;28.90;1.00
39401;DHT22;54391;50.000;7.360;2023-06-22T10:33:36;29.00;1.00
39401;DHT22;54391;50.000;7.360;2023-06-22T10:36:05;29.10;1.00
39401;DHT22;54391;50.000;7.360;2023-06-22T10:45:55;28.00;1.00
39401;DHT22;54391;50.000;7.360;2023-06-22T10:48:22;27.80;1.00
39401;DHT22;54391;50.000;7.360;2023-06-22T10:50:49;27.60;1.00
39401;DHT22;54391;50.000;7.360;2023-06-22T10:53:18;27.60;1.00
39401;DHT22;54391;50.000;7.360;2023-06-22T10:55:45;27.50;1.00
39401;DHT22;54391;50.000;7.360;2023-06-22T10:58:12;29.60;1.00
39401;DHT22;54391;50.000;7.360;2023-06-22T11:03:07;28.00;1.00
39401;DHT22;54391;50.000;7.360;2023-06-22T11:05:34;28.90;1.00
39401;DHT22;54391;50.000;7.360;2023-06-22T11:12:57;28.90;1.00
39401;DHT22;54391;50.000;7.360;2023-06-22T11:15:24;28.90;1.00
39401;DHT22;54391;50.000;7.360;2023-06-22T11:17:51;28.80;1.00
39401;DHT22;54391;50.000;7.360;2023-06-22T11:20:18;28.60;1.00
39401;DHT22;54391;50.000;7.360;2023-06-22T11:22:46;28.60;1.00
39401;DHT22;54391;50.000;7.360;2023-06-22T11:25:13;28.60;1.00
39401;DHT22;54391;50.000;7.360;2023-06-22T11:30:09;28.20;1.00
39401;DHT22;54391;50.000;7.360;2023-06-22T11:32:36;28.10;1.00
39401;DHT22;54391;50.000;7.360;2023-06-22T11:35:04;28.20;1.00
39401;DHT22;54391;50.000;7.360;2023-06-22T11:37:31;28.80;1.00
39401;DHT22;54391;50.000;7.360;2023-06-22T11:39:58;29.00;1.00
39401;DHT22;54391;50.000;7.360;2023-06-22T11:42:25;29.10;1.00
39401;DHT22;54391;50.000;7.360;2023-06-22T11:44:55;29.40;1.00
39401;DHT22;54391;50.000;7.360;2023-06-22T11:47:22;29.40;1.00
39401;DHT22;54391;50.000;7.360;2023-06-22T11:49:49;29.10;1.00
39401;DHT22;54391;50.000;7.360;2023-06-22T11:52:16;29.50;1.00
39401;DHT22;54391;50.000;7.360;2023-06-22T11:54:45;29.30;1.00
39401;DHT22;54391;50.000;7.360;2023-06-22T11:57:12;29.20;1.00
39401;DHT22;54391;50.000;7.360;2023-06-22T12:02:08;29.50;1.00
39401;DHT22;54391;50.000;7.360;2023-06-22T12:04:35;29.50;1.00
39401;DHT22;54391;50.000;7.360;2023-06-22T12:07:03;29.50;1.00
39401;DHT22;54391;50.000;7.360;2023-06-22T12:09:30;29.20;1.00
39401;DHT22;54391;50.000;7.360;2023-06-22T12:11:57;29.10;1.00
39401;DHT22;54391;50.000;7.360;2023-06-22T12:14:25;28.80;1.00
39401;DHT22;54391;50.000;7.360;2023-06-22T12:16:52;28.60;1.00
39401;DHT22;54391;50.000;7.360;2023-06-22T12:19:20;28.70;1.00
39401;DHT22;54391;50.000;7.360;2023-06-22T12:21:47;28.70;1.00
39401;DHT22;54391;50.000;7.360;2023-06-22T12:24:14;28.70;1.00
39401;DHT22;54391;50.000;7.360;2023-06-22T12:26:42;28.80;1.00
39401;DHT22;54391;50.000;7.360;2023-06-22T12:29:09;28.70;1.00
39401;DHT22;54391;50.000;7.360;2023-06-22T12:31:36;28.70;1.00
39401;DHT22;54391;50.000;7.360;2023-06-22T12:34:04;28.90;1.00
39401;DHT22;54391;50.000;7.360;2023-06-22T12:36:33;29.00;1.00
39401;DHT22;54391;50.000;7.360;2023-06-22T12:39:00;29.10;1.00
39401;DHT22;54391;50.000;7.360;2023-06-22T12:41:28;29.40;1.00
39401;DHT22;54391;50.000;7.360;2023-06-22T12:43:55;29.20;1.00
39401;DHT22;54391;50.000;7.360;2023-06-22T12:46:22;29.10;1.00
39401;DHT22;54391;50.000;7.360;2023-06-22T12:48:49;28.60;1.00
39401;DHT22;54391;50.000;7.360;2023-06-22T12:51:21;28.40;1.00
39401;DHT22;54391;50.000;7.360;2023-06-22T12:53:50;28.10;1.00
39401;DHT22;54391;50.000;7.360;2023-06-22T12:56:17;28.10;1.00
39401;DHT22;54391;50.000;7.360;2023-06-22T12:58:44;28.10;1.00
39401;DHT22;54391;50.000;7.360;2023-06-22T13:01:11;28.10;1.00
39401;DHT22;54391;50.000;7.360;2023-06-22T13:03:39;28.10;1.00
39401;DHT22;54391;50.000;7.360;2023-06-22T13:06:06;28.30;1.00
39401;DHT22;54391;50.000;7.360;2023-06-22T13:08:33;28.10;1.00
39401;DHT22;54391;50.000;7.360;2023-06-22T13:11:01;28.30;1.00
39401;DHT22;54391;50.000;7.360;2023-06-22T13:13:28;28.50;1.00
39401;DHT22;54391;50.000;7.360;2023-06-22T13:15:56;28.60;1.00
39401;DHT22;54391;50.000;7.360;2023-06-22T13:18:23;28.30;1.00
39401;DHT22;54391;50.000;7.360;2023-06-22T13:20:50;28.30;1.00
39401;DHT22;54391;50.000;7.360;2023-06-22T13:23:20;28.10;1.00
39401;DHT22;54391;50.000;7.360;2023-06-22T13:25:47;27.80;1.00
39401;DHT22;54391;50.000;7.360;2023-06-22T13:28:16;27.60;1.00
39401;DHT22;54391;50.000;7.360;2023-06-22T13:30:43;27.40;1.00
39401;DHT22;54391;50.000;7.360;2023-06-22T13:33:12;27.30;1.00
39401;DHT22;54391;50.000;7.360;2023-06-22T13:35:40;27.00;1.00
39401;DHT22;54391;50.000;7.360;2023-06-22T13:38:08;26.80;1.00
39401;DHT22;54391;50.000;7.360;2023-06-22T13:45:32;26.40;1.00
39401;DHT22;54391;50.000;7.360;2023-06-22T13:47:59;26.40;1.00
39401;DHT22;54391;50.000;7.360;2023-06-22T13:52:55;26.60;1.00
39401;DHT22;54391;50.000;7.360;2023-06-22T13:55:23;26.70;1.00
39401;DHT22;54391;50.000;7.360;2023-06-22T13:57:50;26.60;1.00
39401;DHT22;54391;50.000;7.360;2023-06-22T14:00:18;26.60;1.00
39401;DHT22;54391;50.000;7.360;2023-06-22T14:02:47;26.50;1.00
39401;DHT22;54391;50.000;7.360;2023-06-22T14:05:14;26.50;1.00
39401;DHT22;54391;50.000;7.360;2023-06-22T14:07:41;26.20;1.00
39401;DHT22;54391;50.000;7.360;2023-06-22T14:10:08;26.00;1.00
39401;DHT22;54391;50.000;7.360;2023-06-22T14:12:35;26.00;1.00
39401;DHT22;54391;50.000;7.360;2023-06-22T14:15:03;25.80;1.00
39401;DHT22;54391;50.000;7.360;2023-06-22T14:22:27;29.60;1.00
39401;DHT22;54391;50.000;7.360;2023-06-22T14:24:55;23.90;9.80
39401;DHT22;54391;50.000;7.360;2023-06-22T14:29:50;21.80;53.00
39401;DHT22;54391;50.000;7.360;2023-06-22T14:32:18;21.10;66.90
39401;DHT22;54391;50.000;7.360;2023-06-22T14:34:45;20.90;72.90
39401;DHT22;54391;50.000;7.360;2023-06-22T14:44:36;21.10;43.20
39401;DHT22;54391;50.000;7.360;2023-06-22T14:47:03;21.20;37.50
39401;DHT22;54391;50.000;7.360;2023-06-22T14:49:30;21.30;38.20
39401;DHT22;54391;50.000;7.360;2023-06-22T14:54:26;21.40;40.90
39401;DHT22;54391;50.000;7.360;2023-06-22T14:56:53;21.40;37.40
39401;DHT22;54391;50.000;7.360;2023-06-22T15:04:15;21.40;38.80
39401;DHT22;54391;50.000;7.360;2023-06-22T15:16:34;21.40;41.70
39401;DHT22;54391;50.000;7.360;2023-06-22T15:21:28;21.50;40.70
39401;DHT22;54391;50.000;7.360;2023-06-22T15:23:56;21.60;42.00
39401;DHT22;54391;50.000;7.360;2023-06-22T15:26:23;21.70;39.10
39401;DHT22;54391;50.000;7.360;2023-06-22T15:28:51;21.90;35.40
39401;DHT22;54391;50.000;7.360;2023-06-22T15:33:46;22.00;32.50
39401;DHT22;54391;50.000;7.360;2023-06-22T15:36:13;22.10;32.60
39401;DHT22;54391;50.000;7.360;2023-06-22T15:41:08;22.20;31.70
39401;DHT22;54391;50.000;7.360;2023-06-22T15:43:35;22.40;30.80
39401;DHT22;54391;50.000;7.360;2023-06-22T15:48:31;22.50;30.70
39401;DHT22;54391;50.000;7.360;2023-06-22T15:50:58;22.60;27.90
39401;DHT22;54391;50.000;7.360;2023-06-22T15:53:27;22.70;31.30
39401;DHT22;54391;50.000;7.360;2023-06-22T15:55:54;22.80;30.90
39401;DHT22;54391;50.000;7.360;2023-06-22T16:05:46;22.70;31.90
39401;DHT22;54391;50.000;7.360;2023-06-22T16:08:13;22.70;30.90
39401;DHT22;54391;50.000;7.360;2023-06-22T16:13:07;22.90;29.80
39401;DHT22;54391;50.000;7.360;2023-06-22T16:15:34;22.90;29.00
39401;DHT22;54391;50.000;7.360;2023-06-22T16:20:32;23.10;28.90
39401;DHT22;54391;50.000;7.360;2023-06-22T16:22:59;23.20;28.50
39401;DHT22;54391;50.000;7.360;2023-06-22T16:25:27;23.20;26.80
39401;DHT22;54391;50.000;7.360;2023-06-22T16:27:55;23.20;27.40
39401;DHT22;54391;50.000;7.360;2023-06-22T16:30:22;23.20;26.00
39401;DHT22;54391;50.000;7.360;2023-06-22T16:32:50;23.20;25.50
39401;DHT22;54391;50.000;7.360;2023-06-22T16:35:19;23.20;24.70
39401;DHT22;54391;50.000;7.360;2023-06-22T16:37:48;23.20;23.60
39401;DHT22;54391;50.000;7.360;2023-06-22T16:40:15;23.30;24.40
39401;DHT22;54391;50.000;7.360;2023-06-22T16:42:46;23.40;22.20
39401;DHT22;54391;50.000;7.360;2023-06-22T16:45:14;23.50;20.00
39401;DHT22;54391;50.000;7.360;2023-06-22T16:47:41;23.50;24.20
39401;DHT22;54391;50.000;7.360;2023-06-22T16:50:09;23.50;19.80
39401;DHT22;54391;50.000;7.360;2023-06-22T16:55:06;23.50;20.00
39401;DHT22;54391;50.000;7.360;2023-06-22T16:57:34;23.50;20.70
39401;DHT22;54391;50.000;7.360;2023-06-22T17:02:32;23.60;17.90
39401;DHT22;54391;50.000;7.360;2023-06-22T17:05:00;23.50;14.30
39401;DHT22;54391;50.000;7.360;2023-06-22T17:07:28;23.60;15.60
39401;DHT22;54391;50.000;7.360;2023-06-22T17:09:57;23.50;13.30
39401;DHT22;54391;50.000;7.360;2023-06-22T17:12:25;23.50;13.70
39401;DHT22;54391;50.000;7.360;2023-06-22T17:14:53;23.50;14.10
39401;DHT22;54391;50.000;7.360;2023-06-22T17:17:23;23.50;14.20
39401;DHT22;54391;50.000;7.360;2023-06-22T17:22:19;23.30;14.10
39401;DHT22;54391;50.000;7.360;2023-06-22T17:24:48;23.20;14.10
39401;DHT22;54391;50.000;7.360;2023-06-22T17:27:27;23.30;14.80
39401;DHT22;54391;50.000;7.360;2023-06-22T17:30:05;23.30;14.80
39401;DHT22;54391;50.000;7.360;2023-06-22T17:32:33;23.30;13.40
39401;DHT22;54391;50.000;7.360;2023-06-22T17:35:00;23.30;13.90
39401;DHT22;54391;50.000;7.360;2023-06-22T17:37:32;23.20;12.50
39401;DHT22;54391;50.000;7.360;2023-06-22T17:39:59;26.20;13.80
39401;DHT22;54391;50.000;7.360;2023-06-22T17:42:28;21.20;8.10
39401;DHT22;54391;50.000;7.360;2023-06-22T17:45:00;22.90;9.20
39401;DHT22;54391;50.000;7.360;2023-06-22T17:47:28;22.80;8.70
39401;DHT22;54391;50.000;7.360;2023-06-22T17:52:31;22.80;9.50
39401;DHT22;54391;50.000;7.360;2023-06-22T17:57:35;22.60;11.20
39401;DHT22;54391;50.000;7.360;2023-06-22T18:00:03;22.70;12.80
39401;DHT22;54391;50.000;7.360;2023-06-22T18:02:40;22.60;13.30
39401;DHT22;54391;50.000;7.360;2023-06-22T18:07:36;22.50;15.50
39401;DHT22;54391;50.000;7.360;2023-06-22T18:10:04;22.50;16.10
39401;DHT22;54391;50.000;7.360;2023-06-22T18:12:34;22.40;16.80
39401;DHT22;54391;50.000;7.360;2023-06-22T18:15:02;22.30;18.60
39401;DHT22;54391;50.000;7.360;2023-06-22T18:19:58;22.10;18.90
39401;DHT22;54391;50.000;7.360;2023-06-22T18:22:28;21.90;19.80
39401;DHT22;54391;50.000;7.360;2023-06-22T18:24:56;21.80;20.70
39401;DHT22;54391;50.000;7.360;2023-06-22T18:27:24;21.60;23.00
39401;DHT22;54391;50.000;7.360;2023-06-22T18:29:55;21.50;23.40
39401;DHT22;54391;50.000;7.360;2023-06-22T18:32:23;21.40;21.60
39401;DHT22;54391;50.000;7.360;2023-06-22T18:34:50;21.50;19.90
39401;DHT22;54391;50.000;7.360;2023-06-22T18:37:18;21.80;20.10
39401;DHT22;54391;50.000;7.360;2023-06-22T18:39:50;21.20;20.90
39401;DHT22;54391;50.000;7.360;2023-06-22T18:42:20;21.10;22.90
39401;DHT22;54391;50.000;7.360;2023-06-22T18:44:53;21.10;24.10
39401;DHT22;54391;50.000;7.360;2023-06-22T18:47:26;20.80;27.10
39401;DHT22;54391;50.000;7.360;2023-06-22T18:50:03;20.70;29.40
39401;DHT22;54391;50.000;7.360;2023-06-22T18:52:30;20.60;30.90
39401;DHT22;54391;50.000;7.360;2023-06-22T18:55:01;20.60;32.60
39401;DHT22;54391;50.000;7.360;2023-06-22T18:57:29;20.50;33.00
39401;DHT22;54391;50.000;7.360;2023-06-22T19:00:04;20.50;34.20
39401;DHT22;54391;50.000;7.360;2023-06-22T19:02:45;20.20;35.10
39401;DHT22;54391;50.000;7.360;2023-06-22T19:05:18;20.10;37.10
39401;DHT22;54391;50.000;7.360;2023-06-22T19:08:00;20.00;38.80
39401;DHT22;54391;50.000;7.360;2023-06-22T19:10:30;19.90;40.40
39401;DHT22;54391;50.000;7.360;2023-06-22T19:15:42;19.60;44.90
39401;DHT22;54391;50.000;7.360;2023-06-22T19:18:15;19.60;46.60
39401;DHT22;54391;50.000;7.360;2023-06-22T19:20:43;19.30;46.60
39401;DHT22;54391;50.000;7.360;2023-06-22T19:23:29;19.30;46.40
39401;DHT22;54391;50.000;7.360;2023-06-22T19:25:57;19.30;46.60
39401;DHT22;54391;50.000;7.360;2023-06-22T19:28:26;19.10;47.10
39401;DHT22;54391;50.000;7.360;2023-06-22T19:30:56;19.00;48.80
39401;DHT22;54391;50.000;7.360;2023-06-22T19:33:24;19.00;48.90
39401;DHT22;54391;50.000;7.360;2023-06-22T19:35:54;19.10;50.20
39401;DHT22;54391;50.000;7.360;2023-06-22T19:38:25;18.90;48.70
39401;DHT22;54391;50.000;7.360;2023-06-22T19:40:53;18.80;50.00